createdAt,value
2023-05-20T00:00:11.471Z,99.90
2023-05-20T00:00:34.456Z,99.90
2023-05-20T00:00:57.451Z,99.90
2023-05-20T00:01:20.278Z,99.90
2023-05-20T00:01:43.240Z,99.90
2023-05-20T00:02:06.470Z,99.90
2023-05-20T00:02:31.414Z,99.90
2023-05-20T00:02:54.313Z,99.90
2023-05-20T00:03:17.406Z,99.90
2023-05-20T00:03:40.589Z,99.90
2023-05-20T00:04:04.056Z,99.90
2023-05-20T00:04:26.925Z,99.90
2023-05-20T00:04:49.918Z,99.90
2023-05-20T00:05:12.749Z,99.90
2023-05-20T00:05:35.571Z,99.90
2023-05-20T00:05:58.377Z,99.90
2023-05-20T00:06:21.247Z,99.90
2023-05-20T00:06:44.030Z,99.90
2023-05-20T00:07:06.790Z,99.90
2023-05-20T00:07:29.676Z,99.90
2023-05-20T00:07:52.545Z,99.90
2023-05-20T00:08:15.589Z,99.90
2023-05-20T00:08:38.464Z,99.90
2023-05-20T00:09:01.209Z,99.90
2023-05-20T00:09:24.062Z,99.90
2023-05-20T00:09:46.789Z,96.00
2023-05-20T00:10:11.613Z,99.90
2023-05-20T00:10:34.440Z,99.90
2023-05-20T00:10:57.211Z,99.90
2023-05-20T00:11:20.173Z,99.90
2023-05-20T00:11:42.923Z,99.90
2023-05-20T00:12:07.053Z,99.90
2023-05-20T00:12:29.991Z,99.90
2023-05-20T00:12:52.871Z,99.90
2023-05-20T00:13:15.742Z,99.90
2023-05-20T00:13:39.447Z,99.90
2023-05-20T00:14:02.450Z,99.90
2023-05-20T00:14:25.506Z,99.90
2023-05-20T00:14:48.274Z,99.90
2023-05-20T00:15:12.543Z,99.90
2023-05-20T00:15:36.943Z,99.90
2023-05-20T00:16:00.012Z,99.90
2023-05-20T00:16:22.826Z,99.90
2023-05-20T00:16:45.714Z,99.90
2023-05-20T00:17:08.691Z,99.90
2023-05-20T00:17:36.173Z,99.90
2023-05-20T00:18:00.544Z,99.90
2023-05-20T00:18:23.254Z,99.90
2023-05-20T00:18:46.079Z,99.90
2023-05-20T00:19:08.899Z,99.90
2023-05-20T00:19:31.726Z,99.90
2023-05-20T00:19:54.743Z,99.90
2023-05-20T00:20:17.892Z,99.90
2023-05-20T00:20:40.904Z,99.90
2023-05-20T00:21:03.836Z,99.90
2023-05-20T00:21:26.615Z,99.90
2023-05-20T00:21:49.377Z,99.90
2023-05-20T00:22:12.286Z,99.90
2023-05-20T00:22:35.082Z,99.90
2023-05-20T00:22:58.948Z,99.90
2023-05-20T00:23:21.801Z,99.90
2023-05-20T00:23:44.605Z,99.90
2023-05-20T00:24:07.641Z,99.90
2023-05-20T00:24:30.640Z,99.90
2023-05-20T00:24:58.686Z,99.90
2023-05-20T00:25:22.245Z,99.90
2023-05-20T00:25:45.031Z,99.90
2023-05-20T00:26:07.816Z,99.90
2023-05-20T00:26:31.245Z,99.90
2023-05-20T00:26:54.289Z,99.90
2023-05-20T00:27:17.176Z,99.90
2023-05-20T00:27:40.001Z,99.90
2023-05-20T00:28:02.866Z,99.90
2023-05-20T00:28:25.795Z,99.90
2023-05-20T00:28:48.789Z,99.90
2023-05-20T00:29:11.829Z,99.90
2023-05-20T00:29:34.935Z,99.90
2023-05-20T00:29:57.756Z,99.90
2023-05-20T00:30:20.848Z,99.90
2023-05-20T00:30:43.760Z,99.90
2023-05-20T00:31:06.599Z,99.90
2023-05-20T00:31:29.452Z,99.90
2023-05-20T00:31:52.331Z,99.90
2023-05-20T00:32:15.586Z,99.90
2023-05-20T00:32:40.296Z,99.90
2023-05-20T00:33:03.165Z,99.90
2023-05-20T00:33:26.211Z,99.90
2023-05-20T00:33:49.150Z,99.90
2023-05-20T00:34:11.965Z,99.90
2023-05-20T00:34:34.768Z,99.90
2023-05-20T00:34:58.239Z,99.90
2023-05-20T00:35:21.514Z,99.90
2023-05-20T00:35:44.260Z,99.90
2023-05-20T00:36:07.249Z,99.90
2023-05-20T00:36:30.023Z,99.90
2023-05-20T00:36:52.745Z,99.90
2023-05-20T00:37:15.648Z,99.90
2023-05-20T00:37:38.308Z,99.90
2023-05-20T00:38:01.164Z,99.90
2023-05-20T00:38:24.069Z,99.90
2023-05-20T00:38:46.865Z,99.90
2023-05-20T00:39:09.650Z,99.90
2023-05-20T00:39:32.428Z,99.90
2023-05-20T00:39:55.156Z,99.90
2023-05-20T00:40:18.148Z,99.90
2023-05-20T00:40:40.960Z,99.90
2023-05-20T00:41:03.865Z,99.90
2023-05-20T00:41:26.714Z,99.90
2023-05-20T00:41:49.549Z,95.00
2023-05-20T00:42:12.422Z,99.90
2023-05-20T00:42:35.228Z,99.90
2023-05-20T00:42:58.070Z,99.90
2023-05-20T00:43:20.919Z,99.90
2023-05-20T00:43:43.653Z,99.90
2023-05-20T00:44:06.498Z,99.90
2023-05-20T00:44:29.271Z,99.90
2023-05-20T00:44:52.181Z,99.90
2023-05-20T00:45:15.006Z,99.90
2023-05-20T00:45:57.196Z,99.90
2023-05-20T00:46:20.103Z,99.90
2023-05-20T00:46:42.814Z,99.90
2023-05-20T00:47:08.032Z,99.90
2023-05-20T00:47:34.472Z,99.90
2023-05-20T00:48:01.710Z,99.90
2023-05-20T00:48:24.618Z,99.90
2023-05-20T00:48:49.516Z,99.90
2023-05-20T00:49:12.209Z,99.90
2023-05-20T00:49:35.197Z,99.90
2023-05-20T00:49:58.003Z,99.90
2023-05-20T00:50:20.992Z,99.90
2023-05-20T00:50:46.238Z,99.90
2023-05-20T00:51:11.161Z,99.90
2023-05-20T00:51:33.961Z,99.90
2023-05-20T00:51:56.705Z,99.90
2023-05-20T00:52:19.664Z,99.90
2023-05-20T00:52:45.381Z,99.90
2023-05-20T00:53:08.195Z,99.90
2023-05-20T00:53:30.891Z,99.90
2023-05-20T00:53:53.880Z,99.90
2023-05-20T00:54:16.616Z,99.90
2023-05-20T00:54:39.446Z,99.90
2023-05-20T00:55:02.233Z,99.90
2023-05-20T00:55:25.618Z,99.90
2023-05-20T00:55:48.353Z,99.90
2023-05-20T00:56:11.061Z,99.90
2023-05-20T00:56:33.813Z,99.90
2023-05-20T00:56:56.861Z,99.90
2023-05-20T00:57:20.179Z,99.90
2023-05-20T00:57:42.932Z,99.90
2023-05-20T00:58:06.268Z,99.90
2023-05-20T00:58:29.060Z,99.90
2023-05-20T00:58:51.860Z,99.90
2023-05-20T00:59:14.709Z,99.90
2023-05-20T00:59:37.891Z,99.90
2023-05-20T01:00:00.771Z,99.90
2023-05-20T01:00:23.595Z,99.90
2023-05-20T01:00:46.344Z,99.90
2023-05-20T01:01:09.192Z,99.90
2023-05-20T01:01:32.080Z,99.90
2023-05-20T01:01:55.116Z,99.90
2023-05-20T01:02:18.319Z,99.90
2023-05-20T01:02:41.295Z,99.90
2023-05-20T01:03:06.108Z,99.90
2023-05-20T01:03:29.500Z,99.90
2023-05-20T01:03:53.553Z,99.90
2023-05-20T01:04:16.363Z,99.90
2023-05-20T01:04:39.263Z,99.90
2023-05-20T01:05:02.155Z,99.90
2023-05-20T01:05:25.342Z,99.90
2023-05-20T01:05:48.087Z,99.90
2023-05-20T01:06:11.098Z,99.90
2023-05-20T01:06:34.153Z,99.90
2023-05-20T01:07:00.272Z,99.90
2023-05-20T01:07:23.455Z,99.90
2023-05-20T01:07:46.459Z,99.90
2023-05-20T01:08:09.212Z,99.90
2023-05-20T01:08:32.408Z,99.90
2023-05-20T01:08:55.217Z,99.90
2023-05-20T01:09:17.955Z,99.90
2023-05-20T01:09:40.731Z,99.90
2023-05-20T01:10:04.094Z,99.90
2023-05-20T01:10:26.952Z,99.90
2023-05-20T01:10:52.232Z,99.90
2023-05-20T01:11:16.532Z,99.90
2023-05-20T01:11:43.230Z,99.90
2023-05-20T01:12:09.667Z,99.90
2023-05-20T01:12:35.270Z,99.90
2023-05-20T01:12:59.991Z,99.90
2023-05-20T01:13:22.875Z,99.90
2023-05-20T01:13:47.176Z,99.90
2023-05-20T01:14:10.458Z,99.90
2023-05-20T01:14:37.804Z,99.90
2023-05-20T01:15:04.158Z,99.90
2023-05-20T01:15:27.699Z,99.90
2023-05-20T01:15:50.604Z,99.90
2023-05-20T01:16:13.443Z,99.90
2023-05-20T01:16:36.433Z,99.90
2023-05-20T01:16:59.808Z,99.90
2023-05-20T01:17:27.004Z,99.90
2023-05-20T01:17:53.338Z,99.90
2023-05-20T01:18:18.479Z,99.90
2023-05-20T01:18:42.152Z,99.90
2023-05-20T01:19:05.247Z,99.90
2023-05-20T01:19:34.267Z,99.90
2023-05-20T01:19:57.064Z,99.90
2023-05-20T01:20:21.050Z,99.90
2023-05-20T01:20:46.290Z,99.90
2023-05-20T01:21:11.544Z,99.90
2023-05-20T01:21:34.248Z,99.90
2023-05-20T01:21:57.357Z,99.90
2023-05-20T01:22:20.757Z,99.90
2023-05-20T01:22:49.248Z,99.90
2023-05-20T01:23:12.064Z,99.90
2023-05-20T01:23:38.133Z,99.90
2023-05-20T01:24:02.129Z,99.90
2023-05-20T01:24:24.844Z,99.90
2023-05-20T01:24:53.688Z,99.90
2023-05-20T01:25:16.476Z,99.90
2023-05-20T01:25:39.334Z,99.90
2023-05-20T01:26:02.770Z,99.90
2023-05-20T01:26:27.476Z,99.90
2023-05-20T01:26:50.574Z,99.90
2023-05-20T01:27:16.220Z,99.90
2023-05-20T01:27:38.996Z,99.90
2023-05-20T01:28:01.804Z,99.90
2023-05-20T01:28:24.834Z,99.90
2023-05-20T01:28:47.580Z,99.90
2023-05-20T01:29:13.987Z,99.90
2023-05-20T01:29:37.461Z,99.90
2023-05-20T01:30:00.325Z,99.90
2023-05-20T01:30:23.249Z,99.90
2023-05-20T01:30:50.775Z,99.90
2023-05-20T01:31:18.016Z,99.90
2023-05-20T01:31:41.437Z,99.90
2023-05-20T01:32:06.120Z,99.90
2023-05-20T01:32:32.352Z,99.90
2023-05-20T01:32:58.375Z,99.90
2023-05-20T01:33:22.125Z,99.90
2023-05-20T01:33:44.895Z,99.90
2023-05-20T01:34:07.610Z,99.90
2023-05-20T01:34:30.397Z,99.90
2023-05-20T01:34:53.321Z,99.90
2023-05-20T01:35:16.293Z,99.90
2023-05-20T01:35:39.639Z,99.90
2023-05-20T01:36:02.471Z,99.90
2023-05-20T01:36:26.463Z,99.90
2023-05-20T01:36:49.350Z,99.90
2023-05-20T01:37:12.226Z,99.90
2023-05-20T01:37:35.243Z,99.90
2023-05-20T01:37:59.416Z,99.90
2023-05-20T01:38:22.250Z,99.90
2023-05-20T01:38:45.006Z,99.90
2023-05-20T01:39:08.375Z,99.90
2023-05-20T01:39:31.152Z,99.90
2023-05-20T01:39:53.958Z,99.90
2023-05-20T01:40:16.854Z,99.90
2023-05-20T01:40:39.743Z,99.90
2023-05-20T01:41:02.752Z,99.90
2023-05-20T01:41:25.680Z,99.90
2023-05-20T01:41:48.461Z,99.90
2023-05-20T01:42:11.825Z,99.90
2023-05-20T01:42:34.590Z,99.90
2023-05-20T01:42:57.473Z,99.90
2023-05-20T01:43:20.318Z,99.90
2023-05-20T01:43:43.921Z,99.90
2023-05-20T01:44:06.685Z,99.90
2023-05-20T01:44:29.498Z,99.90
2023-05-20T01:44:52.323Z,99.90
2023-05-20T01:45:15.091Z,99.90
2023-05-20T01:45:38.425Z,99.90
2023-05-20T01:46:03.200Z,99.90
2023-05-20T01:46:26.109Z,99.90
2023-05-20T01:46:50.269Z,99.90
2023-05-20T01:47:13.304Z,99.90
2023-05-20T01:47:36.120Z,99.90
2023-05-20T01:47:59.091Z,99.90
2023-05-20T01:48:22.339Z,99.90
2023-05-20T01:48:45.081Z,99.90
2023-05-20T01:49:07.893Z,99.90
2023-05-20T01:49:30.750Z,99.90
2023-05-20T01:49:54.441Z,99.90
2023-05-20T01:50:17.173Z,99.90
2023-05-20T01:50:39.954Z,99.90
2023-05-20T01:51:02.774Z,99.90
2023-05-20T01:51:25.653Z,99.90
2023-05-20T01:51:48.465Z,99.90
2023-05-20T01:52:11.328Z,99.90
2023-05-20T01:52:34.156Z,99.90
2023-05-20T01:52:58.366Z,99.90
2023-05-20T01:53:21.194Z,99.90
2023-05-20T01:53:44.382Z,99.90
2023-05-20T01:54:07.175Z,99.90
2023-05-20T01:54:29.952Z,99.90
2023-05-20T01:54:52.787Z,99.90
2023-05-20T01:55:15.723Z,99.90
2023-05-20T01:55:38.401Z,99.90
2023-05-20T01:56:01.222Z,99.90
2023-05-20T01:56:24.037Z,99.90
2023-05-20T01:56:47.057Z,99.90
2023-05-20T01:57:09.812Z,99.90
2023-05-20T01:57:32.592Z,99.90
2023-05-20T01:57:55.390Z,99.90
2023-05-20T01:58:18.818Z,99.90
2023-05-20T01:58:41.716Z,99.90
2023-05-20T01:59:04.642Z,99.90
2023-05-20T01:59:27.521Z,99.90
2023-05-20T01:59:52.621Z,99.90
2023-05-20T02:00:15.880Z,99.90
2023-05-20T02:00:40.853Z,99.90
2023-05-20T02:01:04.238Z,99.90
2023-05-20T02:01:27.046Z,99.90
2023-05-20T02:01:49.877Z,99.90
2023-05-20T02:02:12.724Z,99.90
2023-05-20T02:02:35.596Z,99.90
2023-05-20T02:02:58.499Z,99.90
2023-05-20T02:03:21.355Z,99.90
2023-05-20T02:03:44.178Z,99.90
2023-05-20T02:04:06.983Z,99.90
2023-05-20T02:04:29.887Z,99.90
2023-05-20T02:04:54.944Z,99.90
2023-05-20T02:05:17.806Z,99.90
2023-05-20T02:05:41.786Z,99.90
2023-05-20T02:06:04.891Z,99.90
2023-05-20T02:06:27.791Z,99.90
2023-05-20T02:06:50.560Z,99.90
2023-05-20T02:07:13.326Z,99.90
2023-05-20T02:07:36.106Z,99.90
2023-05-20T02:08:00.831Z,99.90
2023-05-20T02:08:23.679Z,99.90
2023-05-20T02:08:46.524Z,99.90
2023-05-20T02:09:09.369Z,99.90
2023-05-20T02:09:32.180Z,99.90
2023-05-20T02:09:55.034Z,99.90
2023-05-20T02:10:17.947Z,99.90
2023-05-20T02:10:40.843Z,99.90
2023-05-20T02:11:03.616Z,99.90
2023-05-20T02:11:26.420Z,99.90
2023-05-20T02:11:49.148Z,99.90
2023-05-20T02:12:17.915Z,99.90
2023-05-20T02:12:40.675Z,99.90
2023-05-20T02:13:03.443Z,99.90
2023-05-20T02:13:28.741Z,99.90
2023-05-20T02:13:51.996Z,99.90
2023-05-20T02:14:14.779Z,99.90
2023-05-20T02:14:37.648Z,99.90
2023-05-20T02:15:00.441Z,99.90
2023-05-20T02:15:23.190Z,99.90
2023-05-20T02:15:46.135Z,99.90
2023-05-20T02:16:08.894Z,99.90
2023-05-20T02:16:31.827Z,99.90
2023-05-20T02:16:54.800Z,99.90
2023-05-20T02:17:17.833Z,99.90
2023-05-20T02:17:40.622Z,99.90
2023-05-20T02:18:06.651Z,99.90
2023-05-20T02:18:29.479Z,99.90
2023-05-20T02:18:53.226Z,99.90
2023-05-20T02:19:20.000Z,99.90
2023-05-20T02:19:42.820Z,99.90
2023-05-20T02:20:08.008Z,99.90
2023-05-20T02:20:30.754Z,99.90
2023-05-20T02:20:53.696Z,99.90
2023-05-20T02:21:16.396Z,99.90
2023-05-20T02:21:40.706Z,99.90
2023-05-20T02:22:03.526Z,99.90
2023-05-20T02:22:26.476Z,99.90
2023-05-20T02:22:49.258Z,99.90
2023-05-20T02:23:13.424Z,99.90
2023-05-20T02:23:36.272Z,99.90
2023-05-20T02:23:58.968Z,99.90
2023-05-20T02:24:21.703Z,99.90
2023-05-20T02:24:44.482Z,99.90
2023-05-20T02:25:09.688Z,99.90
2023-05-20T02:25:32.975Z,99.90
2023-05-20T02:25:56.402Z,99.90
2023-05-20T02:26:20.933Z,99.90
2023-05-20T02:26:46.035Z,99.90
2023-05-20T02:27:08.839Z,99.90
2023-05-20T02:27:31.729Z,99.90
2023-05-20T02:27:57.616Z,99.90
2023-05-20T02:28:20.509Z,99.90
2023-05-20T02:28:47.009Z,99.90
2023-05-20T02:29:09.932Z,99.90
2023-05-20T02:29:32.723Z,99.90
2023-05-20T02:29:55.524Z,99.90
2023-05-20T02:30:18.977Z,99.90
2023-05-20T02:30:41.792Z,99.90
2023-05-20T02:31:04.548Z,99.90
2023-05-20T02:31:27.394Z,99.90
2023-05-20T02:31:50.326Z,1.00
2023-05-20T02:32:16.227Z,1.00
2023-05-20T02:32:39.035Z,1.00
2023-05-20T02:33:01.929Z,1.00
2023-05-20T02:33:27.388Z,1.00
2023-05-20T02:33:50.444Z,1.00
2023-05-20T02:34:13.179Z,1.00
2023-05-20T02:34:36.093Z,12.40
2023-05-20T02:34:59.937Z,99.90
2023-05-20T02:35:22.720Z,99.90
2023-05-20T02:35:45.535Z,99.90
2023-05-20T02:36:08.866Z,99.90
2023-05-20T02:36:32.574Z,99.90
2023-05-20T02:36:55.349Z,99.90
2023-05-20T02:37:19.571Z,1.00
2023-05-20T02:37:44.681Z,1.00
2023-05-20T02:38:07.397Z,8.00
2023-05-20T02:38:32.529Z,95.70
2023-05-20T02:38:57.228Z,99.90
2023-05-20T02:39:20.046Z,99.90
2023-05-20T02:39:42.793Z,99.90
2023-05-20T02:40:09.368Z,99.90
2023-05-20T02:40:32.224Z,99.90
2023-05-20T02:40:56.908Z,99.90
2023-05-20T02:41:19.667Z,99.90
2023-05-20T02:41:42.459Z,1.00
2023-05-20T02:42:06.040Z,1.00
2023-05-20T02:42:28.773Z,1.00
2023-05-20T02:42:51.627Z,1.00
2023-05-20T02:43:14.377Z,1.00
2023-05-20T02:43:40.358Z,1.00
2023-05-20T02:44:03.136Z,1.00
2023-05-20T02:44:26.140Z,1.00
2023-05-20T02:44:48.911Z,1.00
2023-05-20T02:45:11.868Z,1.00
2023-05-20T02:45:34.702Z,1.00
2023-05-20T02:45:57.752Z,1.00
2023-05-20T02:46:20.581Z,1.00
2023-05-20T02:46:43.427Z,1.00
2023-05-20T02:47:06.478Z,99.90
2023-05-20T02:47:29.504Z,99.90
2023-05-20T02:47:52.368Z,99.90
2023-05-20T02:48:15.249Z,99.90
2023-05-20T02:48:40.539Z,99.90
2023-05-20T02:49:03.316Z,99.90
2023-05-20T02:49:26.113Z,99.90
2023-05-20T02:49:48.991Z,99.90
2023-05-20T02:50:11.936Z,99.90
2023-05-20T02:50:34.784Z,99.90
2023-05-20T02:50:57.663Z,99.90
2023-05-20T02:51:20.539Z,99.90
2023-05-20T02:51:43.370Z,99.90
2023-05-20T02:52:06.896Z,99.90
2023-05-20T02:52:29.650Z,99.90
2023-05-20T02:52:52.536Z,99.90
2023-05-20T02:53:15.304Z,99.90
2023-05-20T02:53:39.730Z,99.90
2023-05-20T02:54:02.482Z,99.90
2023-05-20T02:54:25.232Z,99.90
2023-05-20T02:54:48.103Z,99.90
2023-05-20T02:55:11.096Z,99.90
2023-05-20T02:55:36.060Z,99.90
2023-05-20T02:55:59.954Z,99.90
2023-05-20T02:56:22.993Z,99.90
2023-05-20T02:56:47.188Z,99.90
2023-05-20T02:57:10.005Z,99.90
2023-05-20T02:57:38.347Z,99.90
2023-05-20T02:58:01.835Z,99.90
2023-05-20T02:58:26.552Z,99.90
2023-05-20T02:58:49.809Z,99.90
2023-05-20T02:59:12.624Z,99.90
2023-05-20T02:59:35.785Z,99.90
2023-05-20T02:59:58.585Z,99.90
2023-05-20T03:00:22.621Z,99.90
2023-05-20T03:00:45.561Z,99.90
2023-05-20T03:01:08.451Z,99.90
2023-05-20T03:01:31.467Z,99.90
2023-05-20T03:01:54.538Z,99.90
2023-05-20T03:02:17.573Z,99.90
2023-05-20T03:02:40.506Z,99.90
2023-05-20T03:03:03.676Z,99.90
2023-05-20T03:03:29.861Z,99.90
2023-05-20T03:03:53.190Z,99.90
2023-05-20T03:04:18.834Z,99.90
2023-05-20T03:04:41.877Z,99.90
2023-05-20T03:05:05.425Z,99.90
2023-05-20T03:05:28.250Z,99.90
2023-05-20T03:05:51.000Z,99.90
2023-05-20T03:06:13.794Z,99.90
2023-05-20T03:06:36.692Z,99.90
2023-05-20T03:06:59.395Z,99.90
2023-05-20T03:07:22.848Z,99.90
2023-05-20T03:07:46.768Z,99.90
2023-05-20T03:08:10.228Z,99.90
2023-05-20T03:08:34.520Z,99.90
2023-05-20T03:08:59.100Z,99.90
2023-05-20T03:09:21.887Z,99.90
2023-05-20T03:09:44.694Z,99.90
2023-05-20T03:10:09.606Z,99.90
2023-05-20T03:10:32.450Z,99.90
2023-05-20T03:10:55.302Z,99.90
2023-05-20T03:11:18.062Z,99.90
2023-05-20T03:11:40.976Z,99.90
2023-05-20T03:12:03.838Z,99.90
2023-05-20T03:12:26.578Z,99.90
2023-05-20T03:12:49.482Z,99.90
2023-05-20T03:13:12.319Z,99.90
2023-05-20T03:13:35.299Z,99.90
2023-05-20T03:13:58.041Z,99.90
2023-05-20T03:14:20.842Z,99.90
2023-05-20T03:14:43.732Z,99.90
2023-05-20T03:15:08.614Z,99.90
2023-05-20T03:15:32.343Z,99.90
2023-05-20T03:15:55.499Z,91.10
2023-05-20T03:16:18.932Z,54.60
2023-05-20T03:16:41.890Z,63.10
2023-05-20T03:17:05.002Z,55.70
2023-05-20T03:17:27.886Z,56.00
2023-05-20T03:17:59.086Z,61.70
2023-05-20T03:18:22.031Z,78.10
2023-05-20T03:18:44.822Z,99.90
2023-05-20T03:19:07.740Z,71.50
2023-05-20T03:19:33.832Z,67.20
2023-05-20T03:19:56.625Z,46.80
2023-05-20T03:20:20.702Z,30.50
2023-05-20T03:20:44.093Z,42.30
2023-05-20T03:21:07.186Z,61.30
2023-05-20T03:21:29.976Z,99.90
2023-05-20T03:21:52.806Z,99.90
2023-05-20T03:22:15.645Z,98.00
2023-05-20T03:22:38.479Z,95.50
2023-05-20T03:23:02.294Z,95.90
2023-05-20T03:23:25.362Z,99.90
2023-05-20T03:23:48.764Z,99.90
2023-05-20T03:24:13.023Z,99.90
2023-05-20T03:24:35.863Z,99.90
2023-05-20T03:25:00.641Z,99.90
2023-05-20T03:25:23.456Z,55.60
2023-05-20T03:25:46.426Z,43.00
2023-05-20T03:26:09.229Z,27.40
2023-05-20T03:26:34.174Z,15.50
2023-05-20T03:26:57.209Z,54.70
2023-05-20T03:27:19.953Z,34.90
2023-05-20T03:27:43.296Z,1.00
2023-05-20T03:28:06.959Z,1.00
2023-05-20T03:28:29.780Z,1.00
2023-05-20T03:28:52.536Z,1.00
2023-05-20T03:29:15.302Z,1.00
2023-05-20T03:29:40.492Z,1.00
2023-05-20T03:30:03.503Z,1.00
2023-05-20T03:30:26.458Z,1.00
2023-05-20T03:30:49.148Z,1.00
2023-05-20T03:31:12.016Z,1.00
2023-05-20T03:31:34.985Z,1.00
2023-05-20T03:31:57.981Z,1.00
2023-05-20T03:32:20.844Z,1.00
2023-05-20T03:32:43.737Z,1.00
2023-05-20T03:33:09.879Z,1.00
2023-05-20T03:33:34.617Z,1.00
2023-05-20T03:33:57.486Z,1.00
2023-05-20T03:34:20.576Z,1.00
2023-05-20T03:34:43.442Z,1.00
2023-05-20T03:35:10.370Z,1.00
2023-05-20T03:35:33.345Z,1.00
2023-05-20T03:35:56.408Z,1.00
2023-05-20T03:36:19.246Z,1.00
2023-05-20T03:36:42.097Z,1.00
2023-05-20T03:37:07.719Z,1.00
2023-05-20T03:37:30.507Z,16.90
2023-05-20T03:37:53.501Z,21.10
2023-05-20T03:38:16.234Z,19.80
2023-05-20T03:38:39.066Z,3.50
2023-05-20T03:39:04.931Z,14.90
2023-05-20T03:39:29.175Z,32.90
2023-05-20T03:39:51.902Z,99.90
2023-05-20T03:40:14.732Z,99.90
2023-05-20T03:40:37.492Z,99.90
2023-05-20T03:41:03.278Z,99.90
2023-05-20T03:41:26.646Z,99.90
2023-05-20T03:41:49.496Z,99.90
2023-05-20T03:42:12.341Z,99.90
2023-05-20T03:42:35.396Z,99.90
2023-05-20T03:43:01.317Z,99.90
2023-05-20T03:43:26.437Z,99.90
2023-05-20T03:43:49.245Z,99.90
2023-05-20T03:44:12.060Z,99.90
2023-05-20T03:44:34.822Z,99.90
2023-05-20T03:44:58.451Z,99.90
2023-05-20T03:45:21.289Z,99.90
2023-05-20T03:45:44.157Z,99.90
2023-05-20T03:46:07.266Z,99.90
2023-05-20T03:46:34.784Z,99.90
2023-05-20T03:46:57.923Z,99.90
2023-05-20T03:47:20.906Z,99.90
2023-05-20T03:47:43.859Z,99.90
2023-05-20T03:48:07.339Z,99.90
2023-05-20T03:48:30.341Z,99.90
2023-05-20T03:48:53.091Z,99.90
2023-05-20T03:49:16.075Z,55.80
2023-05-20T03:49:41.216Z,27.90
2023-05-20T03:50:06.657Z,40.70
2023-05-20T03:50:31.293Z,78.60
2023-05-20T03:50:54.125Z,87.70
2023-05-20T03:51:16.901Z,90.20
2023-05-20T03:51:39.679Z,97.70
2023-05-20T03:52:03.751Z,99.90
2023-05-20T03:52:27.096Z,99.90
2023-05-20T03:52:52.410Z,99.90
2023-05-20T03:53:15.369Z,89.20
2023-05-20T03:53:38.200Z,99.70
2023-05-20T03:54:01.348Z,92.60
2023-05-20T03:54:24.201Z,99.90
2023-05-20T03:54:48.426Z,41.20
2023-05-20T03:55:11.247Z,46.80
2023-05-20T03:55:34.921Z,3.20
2023-05-20T03:55:57.995Z,1.00
2023-05-20T03:56:21.329Z,1.00
2023-05-20T03:56:44.515Z,1.00
2023-05-20T03:57:07.395Z,1.00
2023-05-20T03:57:30.488Z,1.00
2023-05-20T03:57:53.252Z,1.00
2023-05-20T03:58:16.000Z,1.00
2023-05-20T03:58:38.990Z,1.00
2023-05-20T03:59:02.299Z,1.00
2023-05-20T03:59:24.991Z,1.00
2023-05-20T03:59:47.797Z,1.00
2023-05-20T04:00:12.319Z,1.00
2023-05-20T04:00:36.052Z,1.00
2023-05-20T04:00:59.023Z,1.00
2023-05-20T04:01:25.763Z,1.00
2023-05-20T04:01:48.671Z,1.00
2023-05-20T04:02:12.173Z,1.00
2023-05-20T04:02:35.277Z,1.00
2023-05-20T04:02:58.613Z,1.00
2023-05-20T04:03:22.957Z,1.00
2023-05-20T04:03:45.994Z,1.00
2023-05-20T04:04:08.940Z,1.00
2023-05-20T04:04:35.079Z,1.00
2023-05-20T04:04:58.787Z,1.00
2023-05-20T04:05:21.814Z,1.00
2023-05-20T04:05:44.676Z,1.00
2023-05-20T04:06:07.441Z,1.00
2023-05-20T04:06:30.331Z,1.00
2023-05-20T04:06:54.546Z,1.00
2023-05-20T04:07:17.292Z,1.00
2023-05-20T04:07:42.687Z,1.00
2023-05-20T04:08:06.006Z,1.00
2023-05-20T04:08:29.351Z,1.00
2023-05-20T04:08:53.616Z,99.90
2023-05-20T04:09:16.361Z,99.90
2023-05-20T04:09:39.348Z,99.90
2023-05-20T04:10:03.596Z,99.90
2023-05-20T04:10:26.499Z,99.90
2023-05-20T04:10:49.856Z,99.90
2023-05-20T04:11:12.843Z,99.90
2023-05-20T04:11:36.278Z,99.90
2023-05-20T04:11:59.086Z,99.90
2023-05-20T04:12:22.644Z,99.90
2023-05-20T04:12:45.716Z,99.90
2023-05-20T04:13:08.760Z,99.90
2023-05-20T04:13:31.649Z,99.90
2023-05-20T04:13:55.001Z,99.90
2023-05-20T04:14:18.453Z,99.90
2023-05-20T04:14:42.529Z,99.90
2023-05-20T04:15:06.932Z,99.90
2023-05-20T04:15:30.975Z,99.90
2023-05-20T04:15:53.933Z,99.90
2023-05-20T04:16:16.900Z,99.90
2023-05-20T04:16:39.913Z,99.90
2023-05-20T04:17:05.014Z,99.90
2023-05-20T04:17:30.267Z,99.90
2023-05-20T04:17:53.232Z,99.90
2023-05-20T04:18:18.203Z,99.90
2023-05-20T04:18:41.230Z,99.90
2023-05-20T04:19:04.173Z,99.90
2023-05-20T04:19:28.783Z,99.90
2023-05-20T04:19:52.221Z,99.90
2023-05-20T04:20:15.134Z,99.90
2023-05-20T04:20:38.302Z,99.90
2023-05-20T04:21:01.881Z,99.90
2023-05-20T04:21:24.780Z,99.90
2023-05-20T04:21:47.586Z,99.90
2023-05-20T04:22:11.117Z,99.90
2023-05-20T04:22:33.895Z,99.90
2023-05-20T04:22:56.765Z,99.90
2023-05-20T04:23:19.568Z,94.70
2023-05-20T04:23:42.336Z,77.60
2023-05-20T04:24:05.874Z,64.90
2023-05-20T04:24:28.773Z,46.50
2023-05-20T04:24:51.677Z,1.00
2023-05-20T04:25:18.866Z,1.00
2023-05-20T04:25:42.346Z,1.00
2023-05-20T04:26:05.235Z,1.00
2023-05-20T04:26:28.003Z,1.00
2023-05-20T04:26:50.872Z,1.00
2023-05-20T04:27:16.054Z,1.00
2023-05-20T04:27:40.126Z,1.00
2023-05-20T04:28:03.019Z,1.00
2023-05-20T04:28:28.400Z,1.00
2023-05-20T04:28:51.276Z,1.00
2023-05-20T04:29:18.715Z,1.00
2023-05-20T04:29:46.155Z,1.00
2023-05-20T04:30:10.397Z,1.00
2023-05-20T04:30:33.860Z,1.00
2023-05-20T04:31:00.409Z,1.00
2023-05-20T04:31:26.965Z,1.00
2023-05-20T04:31:50.165Z,1.00
2023-05-20T04:32:17.246Z,1.00
2023-05-20T04:32:40.214Z,1.00
2023-05-20T04:33:03.758Z,1.00
2023-05-20T04:33:26.795Z,1.00
2023-05-20T04:33:49.647Z,99.90
2023-05-20T04:34:12.536Z,99.90
2023-05-20T04:34:37.445Z,99.90
2023-05-20T04:35:02.339Z,99.90
2023-05-20T04:35:26.406Z,99.90
2023-05-20T04:35:49.108Z,99.90
2023-05-20T04:36:17.849Z,99.90
2023-05-20T04:36:40.681Z,99.90
2023-05-20T04:37:03.732Z,99.90
2023-05-20T04:37:26.611Z,99.90
2023-05-20T04:37:49.451Z,99.90
2023-05-20T04:38:12.381Z,99.90
2023-05-20T04:38:36.167Z,99.90
2023-05-20T04:38:58.891Z,99.90
2023-05-20T04:39:21.844Z,99.90
2023-05-20T04:39:48.404Z,99.90
2023-05-20T04:40:13.720Z,99.90
2023-05-20T04:40:37.987Z,99.90
2023-05-20T04:41:01.652Z,99.90
2023-05-20T04:41:24.682Z,99.90
2023-05-20T04:41:48.711Z,99.90
2023-05-20T04:42:11.562Z,99.90
2023-05-20T04:42:34.399Z,99.90
2023-05-20T04:42:58.645Z,99.90
2023-05-20T04:43:22.350Z,99.90
2023-05-20T04:43:46.150Z,99.90
2023-05-20T04:44:08.920Z,99.90
2023-05-20T04:44:31.827Z,99.90
2023-05-20T04:44:56.833Z,99.90
2023-05-20T04:45:19.691Z,99.90
2023-05-20T04:45:42.732Z,99.90
2023-05-20T04:46:06.450Z,99.90
2023-05-20T04:46:30.125Z,99.90
2023-05-20T04:46:53.583Z,99.90
2023-05-20T04:47:16.324Z,99.90
2023-05-20T04:47:39.493Z,99.90
2023-05-20T04:48:02.489Z,99.90
2023-05-20T04:48:25.366Z,99.90
2023-05-20T04:48:48.253Z,99.90
2023-05-20T04:49:11.048Z,99.90
2023-05-20T04:49:33.839Z,99.90
2023-05-20T04:49:59.543Z,99.90
2023-05-20T04:50:22.440Z,99.90
2023-05-20T04:50:46.141Z,99.90
2023-05-20T04:51:10.048Z,99.90
2023-05-20T04:51:34.362Z,99.90
2023-05-20T04:51:57.044Z,99.90
2023-05-20T04:52:19.758Z,99.90
2023-05-20T04:52:44.876Z,99.90
2023-05-20T04:53:08.077Z,99.90
2023-05-20T04:53:30.818Z,99.90
2023-05-20T04:53:53.780Z,99.90
2023-05-20T04:54:18.075Z,99.90
2023-05-20T04:54:40.887Z,99.90
2023-05-20T04:55:03.836Z,99.90
2023-05-20T04:55:27.901Z,99.90
2023-05-20T04:55:55.442Z,99.90
2023-05-20T04:56:18.252Z,99.90
2023-05-20T04:56:41.100Z,99.90
2023-05-20T04:57:04.214Z,99.90
2023-05-20T04:57:27.631Z,99.90
2023-05-20T04:57:50.716Z,99.90
2023-05-20T04:58:15.903Z,99.90
2023-05-20T04:58:38.829Z,92.40
2023-05-20T04:59:01.608Z,94.10
2023-05-20T04:59:24.395Z,97.90
2023-05-20T04:59:47.659Z,93.90
2023-05-20T05:00:12.765Z,99.90
2023-05-20T05:00:35.865Z,63.40
2023-05-20T05:00:58.727Z,91.60
2023-05-20T05:01:21.829Z,89.30
2023-05-20T05:01:44.650Z,88.70
2023-05-20T05:02:07.551Z,87.30
2023-05-20T05:02:30.340Z,72.10
2023-05-20T05:02:53.111Z,80.30
2023-05-20T05:03:15.889Z,67.10
2023-05-20T05:03:38.798Z,48.30
2023-05-20T05:04:01.627Z,34.30